Time;durP1;ratioP1;P1;durP2;ratioP2;P2;SDS_P1;SDS_P2;PMS_P1;PMS_P2;Temp;Humidity;BMP_temperature;BMP_pressure;BME280_temperature;BME280_humidity;BME280_pressure;Samples;Min_cycle;Max_cycle;Signal;HPM_P1;HPM_P2
2022/12/30 00:02:00;;;;;;;;;;;;;;;;;;4994925;28;19926;-88
2022/12/30 00:04:26;;;;;;;;;;;;;;;;;;5010853;28;20372;-89
2022/12/30 00:06:52;;;;;;;;;;;;;;;;;;5010884;28;19922;-88
2022/12/30 00:09:18;;;;;;;;;;;;;;;;;;5011166;28;19921;-88
2022/12/30 00:11:44;;;;;;;;;;;;;;;;;;5013935;28;20072;-89
2022/12/30 00:33:22;;;;;;;;;;;;;;;;;;5014821;28;19925;-89
2022/12/30 00:35:49;;;;;;;;;;;;;;;;;;4998302;28;19926;-89
2022/12/30 00:38:15;;;;;;;;;;;;;;;;;;4998456;28;20008;-89
2022/12/30 00:43:07;;;;;;;;;;;;;;;;;;5014470;28;20012;-89
2022/12/30 00:43:27;;;;;;;;;;;;;;;;;;5014817;28;20284;-89
2022/12/30 00:45:53;;;;;;;;;;;;;;;;;;4997976;28;19922;-89
2022/12/30 00:56:34;;;;;;;;;;;;;;;;;;5013999;28;19997;-89
2022/12/30 00:59:00;;;;;;;;;;;;;;;;;;4997857;28;19928;-88
2022/12/30 01:01:25;;;;;;;;;;;;;;;;;;5014324;28;19921;-89
2022/12/30 01:03:51;;;;;;;;;;;;;;;;;;5014114;28;19928;-89
2022/12/30 01:06:17;;;;;;;;;;;;;;;;;;5013868;28;19929;-89
2022/12/30 01:08:43;;;;;;;;;;;;;;;;;;4997473;28;20020;-89
2022/12/30 01:11:09;;;;;;;;;;;;;;;;;;5013991;28;20100;-89
2022/12/30 01:13:35;;;;;;;;;;;;;;;;;;4997569;28;20361;-89
2022/12/30 01:16:01;;;;;;;;;;;;;;;;;;5013654;28;20376;-89
2022/12/30 01:18:27;;;;;;;;;;;;;;;;;;5013928;28;19926;-89
2022/12/30 01:20:54;;;;;;;;;;;;;;;;;;4997077;28;19921;-90
2022/12/30 01:23:20;;;;;;;;;;;;;;;;;;4995895;28;20072;-89
2022/12/30 01:25:46;;;;;;;;;;;;;;;;;;5013578;28;20012;-89
2022/12/30 01:28:12;;;;;;;;;;;;;;;;;;4997517;28;20471;-89
2022/12/30 01:30:38;;;;;;;;;;;;;;;;;;5013362;28;19967;-89
2022/12/30 01:33:04;;;;;;;;;;;;;;;;;;5013437;28;19926;-89
2022/12/30 01:35:29;;;;;;;;;;;;;;;;;;4997001;28;20012;-89
2022/12/30 01:37:55;;;;;;;;;;;;;;;;;;4997023;28;19929;-89
2022/12/30 01:40:21;;;;;;;;;;;;;;;;;;4996850;28;19921;-88
2022/12/30 01:42:47;;;;;;;;;;;;;;;;;;5013778;28;20357;-89
2022/12/30 01:45:13;;;;;;;;;;;;;;;;;;5013214;28;19933;-89
2022/12/30 01:47:39;;;;;;;;;;;;;;;;;;5013262;28;19936;-89
2022/12/30 01:50:05;;;;;;;;;;;;;;;;;;5013113;28;19953;-89
2022/12/30 01:52:31;;;;;;;;;;;;;;;;;;5013165;28;19948;-89
2022/12/30 01:54:57;;;;;;;;;;;;;;;;;;4996498;28;20276;-89
2022/12/30 01:57:23;;;;;;;;;;;;;;;;;;4996890;28;20317;-89
2022/12/30 01:59:49;;;;;;;;;;;;;;;;;;4996545;28;19928;-89
2022/12/30 02:02:15;;;;;;;;;;;;;;;;;;5013221;28;19925;-88
2022/12/30 02:04:41;;;;;;;;;;;;;;;;;;4996557;28;19979;-89
2022/12/30 02:07:07;;;;;;;;;;;;;;;;;;5012716;28;20005;-89
2022/12/30 02:09:33;;;;;;;;;;;;;;;;;;5012951;28;19921;-89
2022/12/30 02:11:58;;;;;;;;;;;;;;;;;;4996311;28;19968;-89
2022/12/30 02:14:24;;;;;;;;;;;;;;;;;;5012633;28;20010;-90
2022/12/30 02:16:50;;;;;;;;;;;;;;;;;;4996360;28;19981;-90
2022/12/30 02:19:16;;;;;;;;;;;;;;;;;;4998220;28;19921;-89
2022/12/30 02:21:42;;;;;;;;;;;;;;;;;;5015996;28;19929;-89
2022/12/30 02:24:08;;;;;;;;;;;;;;;;;;4999390;28;20384;-89
2022/12/30 02:26:34;;;;;;;;;;;;;;;;;;4999607;28;19929;-89
2022/12/30 02:29:00;;;;;;;;;;;;;;;;;;5015979;28;20390;-89
2022/12/30 02:31:29;;;;;;;;;;;;;;;;;;4999820;28;19921;-89
2022/12/30 02:33:55;;;;;;;;;;;;;;;;;;5015256;28;19951;-89
2022/12/30 02:36:21;;;;;;;;;;;;;;;;;;4999116;28;19924;-89
2022/12/30 02:38:46;;;;;;;;;;;;;;;;;;4999247;28;19979;-89
2022/12/30 02:46:42;;;;;;;;;;;;;;;;;;5015559;28;20352;-89
2022/12/30 02:49:08;;;;;;;;;;;;;;;;;;4999042;28;19972;-89
2022/12/30 02:54:19;;;;;;;;;;;;;;;;;;5015162;28;20372;-90
2022/12/30 02:56:45;;;;;;;;;;;;;;;;;;5015869;28;20067;-89
2022/12/30 03:04:40;;;;;;;;;;;;;;;;;;5015118;28;19925;-89
2022/12/30 03:07:06;;;;;;;;;;;;;;;;;;4998635;28;20323;-90
2022/12/30 03:09:32;;;;;;;;;;;;;;;;;;4998565;28;19948;-89
2022/12/30 03:11:58;;;;;;;;;;;;;;;;;;5015231;28;19976;-89
2022/12/30 03:14:24;;;;;;;;;;;;;;;;;;4999079;28;19921;-89
2022/12/30 03:16:52;;;;;;;;;;;;;;;;;;4998985;28;21756;-90
2022/12/30 03:19:17;;;;;;;;;;;;;;;;;;5015121;28;19957;-89
2022/12/30 03:21:43;;;;;;;;;;;;;;;;;;4998751;28;19921;-89
2022/12/30 03:27:03;;;;;;;;;;;;;;;;;;5015507;28;19975;-89
2022/12/30 03:29:29;;;;;;;;;;;;;;;;;;5015352;28;19975;-89
2022/12/30 03:31:55;;;;;;;;;;;;;;;;;;4998999;28;20331;-89
2022/12/30 03:34:21;;;;;;;;;;;;;;;;;;5015484;28;19925;-89
2022/12/30 03:36:47;;;;;;;;;;;;;;;;;;5015309;28;19964;-89
2022/12/30 03:39:13;;;;;;;;;;;;;;;;;;4998554;28;20244;-89
2022/12/30 03:41:39;;;;;;;;;;;;;;;;;;4998966;28;19972;-89
2022/12/30 03:44:04;;;;;;;;;;;;;;;;;;5015264;28;19921;-89
2022/12/30 03:46:30;;;;;;;;;;;;;;;;;;4997628;28;19932;-90
2022/12/30 03:48:56;;;;;;;;;;;;;;;;;;5014769;28;19925;-89
2022/12/30 03:51:22;;;;;;;;;;;;;;;;;;5014651;28;19994;-89
2022/12/30 03:53:48;;;;;;;;;;;;;;;;;;4998769;28;19921;-89
2022/12/30 03:56:14;;;;;;;;;;;;;;;;;;4998725;28;19921;-89
2022/12/30 03:58:40;;;;;;;;;;;;;;;;;;5014821;28;20399;-88
2022/12/30 04:01:06;;;;;;;;;;;;;;;;;;4998310;28;19921;-88
2022/12/30 04:03:32;;;;;;;;;;;;;;;;;;5014575;28;19921;-88
2022/12/30 04:05:58;;;;;;;;;;;;;;;;;;5014689;28;19921;-88
2022/12/30 04:08:24;;;;;;;;;;;;;;;;;;5014619;28;19921;-89
2022/12/30 04:10:51;;;;;;;;;;;;;;;;;;4998257;28;19925;-88
2022/12/30 04:13:17;;;;;;;;;;;;;;;;;;4998433;28;19925;-88
2022/12/30 04:15:43;;;;;;;;;;;;;;;;;;4998208;28;20418;-88
2022/12/30 04:18:09;;;;;;;;;;;;;;;;;;4998261;28;19975;-89
2022/12/30 04:20:35;;;;;;;;;;;;;;;;;;4997705;28;19925;-89
2022/12/30 04:23:02;;;;;;;;;;;;;;;;;;5014650;28;19933;-88
2022/12/30 04:25:28;;;;;;;;;;;;;;;;;;4998026;28;19922;-88
2022/12/30 04:27:53;;;;;;;;;;;;;;;;;;5014482;28;19921;-88
2022/12/30 04:30:19;;;;;;;;;;;;;;;;;;5032113;28;19925;-88
2022/12/30 04:32:45;;;;;;;;;;;;;;;;;;4998001;28;20322;-88
2022/12/30 04:35:11;;;;;;;;;;;;;;;;;;5014149;28;19921;-88
2022/12/30 04:37:37;;;;;;;;;;;;;;;;;;4997937;28;19925;-88
2022/12/30 04:40:03;;;;;;;;;;;;;;;;;;5014308;28;20135;-89
2022/12/30 04:42:29;;;;;;;;;;;;;;;;;;5014253;28;19944;-88
2022/12/30 04:44:55;;;;;;;;;;;;;;;;;;5014200;28;19921;-89
2022/12/30 04:47:21;;;;;;;;;;;;;;;;;;5014301;28;19925;-88
2022/12/30 04:49:47;;;;;;;;;;;;;;;;;;5014069;28;19921;-88
2022/12/30 04:52:13;;;;;;;;;;;;;;;;;;5014238;28;19993;-88
2022/12/30 04:54:38;;;;;;;;;;;;;;;;;;5014136;28;19921;-88
2022/12/30 04:57:04;;;;;;;;;;;;;;;;;;4999480;28;19924;-88
2022/12/30 04:59:30;;;;;;;;;;;;;;;;;;5001558;28;19925;-88
2022/12/30 05:01:56;;;;;;;;;;;;;;;;;;5001210;28;20229;-88
2022/12/30 05:04:22;;;;;;;;;;;;;;;;;;5017894;28;19921;-88
2022/12/30 05:06:48;;;;;;;;;;;;;;;;;;5001344;28;19921;-88
2022/12/30 05:09:14;;;;;;;;;;;;;;;;;;5017457;28;19951;-88
2022/12/30 05:11:40;;;;;;;;;;;;;;;;;;5017234;28;19925;-88
2022/12/30 05:14:06;;;;;;;;;;;;;;;;;;5000900;28;20008;-87
2022/12/30 05:16:32;;;;;;;;;;;;;;;;;;5017243;28;19961;-89
2022/12/30 05:18:58;;;;;;;;;;;;;;;;;;5000830;28;19928;-89
2022/12/30 05:21:23;;;;;;;;;;;;;;;;;;5000924;28;19948;-89
2022/12/30 05:26:34;;;;;;;;;;;;;;;;;;5017027;28;19921;-89
2022/12/30 05:29:00;;;;;;;;;;;;;;;;;;5001048;28;19921;-89
2022/12/30 05:31:26;;;;;;;;;;;;;;;;;;5017109;28;20304;-89
2022/12/30 05:33:52;;;;;;;;;;;;;;;;;;5000752;28;19928;-89
2022/12/30 05:36:18;;;;;;;;;;;;;;;;;;5016846;28;20195;-89
2022/12/30 05:38:44;;;;;;;;;;;;;;;;;;5000855;28;20007;-89
2022/12/30 05:41:10;;;;;;;;;;;;;;;;;;5016799;28;20295;-89
2022/12/30 05:43:35;;;;;;;;;;;;;;;;;;5000614;28;19922;-89
2022/12/30 05:46:01;;;;;;;;;;;;;;;;;;4999784;28;19921;-89
2022/12/30 05:48:27;;;;;;;;;;;;;;;;;;5000520;28;19928;-89
2022/12/30 05:50:53;;;;;;;;;;;;;;;;;;5016887;28;19947;-89
2022/12/30 05:53:19;;;;;;;;;;;;;;;;;;5000403;28;20266;-89
2022/12/30 05:55:45;;;;;;;;;;;;;;;;;;5000377;28;20325;-89
2022/12/30 05:58:11;;;;;;;;;;;;;;;;;;5000397;28;19925;-88
2022/12/30 06:00:37;;;;;;;;;;;;;;;;;;5000029;28;19936;-88
2022/12/30 06:03:03;;;;;;;;;;;;;;;;;;5000287;28;19921;-90
2022/12/30 06:05:29;;;;;;;;;;;;;;;;;;5000073;28;20019;-90
2022/12/30 06:07:55;;;;;;;;;;;;;;;;;;5015553;28;20430;-90
2022/12/30 06:10:21;;;;;;;;;;;;;;;;;;4999966;28;19929;-89
2022/12/30 06:12:47;;;;;;;;;;;;;;;;;;5016167;28;19925;-89
2022/12/30 06:15:12;;;;;;;;;;;;;;;;;;4999762;28;19941;-89
2022/12/30 06:17:38;;;;;;;;;;;;;;;;;;4999795;28;19925;-89
2022/12/30 06:20:04;;;;;;;;;;;;;;;;;;5016041;28;19976;-89
2022/12/30 06:22:30;;;;;;;;;;;;;;;;;;5016207;28;19925;-89
2022/12/30 06:24:56;;;;;;;;;;;;;;;;;;5000099;28;20112;-89
2022/12/30 06:27:22;;;;;;;;;;;;;;;;;;4999877;28;20431;-89
2022/12/30 06:29:48;;;;;;;;;;;;;;;;;;5015814;28;19927;-89
2022/12/30 06:32:14;;;;;;;;;;;;;;;;;;5016119;28;19920;-90
2022/12/30 06:34:40;;;;;;;;;;;;;;;;;;4999450;28;20262;-90
2022/12/30 06:37:06;;;;;;;;;;;;;;;;;;5015759;28;20013;-89
2022/12/30 06:39:32;;;;;;;;;;;;;;;;;;4999327;28;20016;-89
2022/12/30 06:41:58;;;;;;;;;;;;;;;;;;4999770;28;19921;-89
2022/12/30 06:44:23;;;;;;;;;;;;;;;;;;4999454;28;19927;-89
2022/12/30 06:46:49;;;;;;;;;;;;;;;;;;5015564;28;19921;-89
2022/12/30 06:49:15;;;;;;;;;;;;;;;;;;5015601;28;19921;-90
2022/12/30 06:51:41;;;;;;;;;;;;;;;;;;4999238;28;20085;-89
2022/12/30 06:54:07;;;;;;;;;;;;;;;;;;4999154;28;20403;-90
2022/12/30 06:56:33;;;;;;;;;;;;;;;;;;5015378;28;19971;-89
2022/12/30 06:58:59;;;;;;;;;;;;;;;;;;4999025;28;19928;-89
2022/12/30 07:01:25;;;;;;;;;;;;;;;;;;4999270;28;19924;-90
2022/12/30 07:03:51;;;;;;;;;;;;;;;;;;5015279;28;19925;-89
2022/12/30 07:06:17;;;;;;;;;;;;;;;;;;5015232;28;20270;-89
2022/12/30 07:08:42;;;;;;;;;;;;;;;;;;4998828;28;19928;-89
2022/12/30 07:11:08;;;;;;;;;;;;;;;;;;5015316;28;19940;-89
2022/12/30 07:13:34;;;;;;;;;;;;;;;;;;4999059;28;19921;-90
2022/12/30 07:16:00;;;;;;;;;;;;;;;;;;4998822;28;20273;-89
2022/12/30 07:18:26;;;;;;;;;;;;;;;;;;5015066;28;19921;-89
2022/12/30 07:20:52;;;;;;;;;;;;;;;;;;5014955;28;20019;-89
2022/12/30 07:23:18;;;;;;;;;;;;;;;;;;4998594;28;19971;-89
2022/12/30 07:25:44;;;;;;;;;;;;;;;;;;5015205;28;20443;-89
2022/12/30 07:28:10;;;;;;;;;;;;;;;;;;4998858;28;19925;-89
2022/12/30 07:30:36;;;;;;;;;;;;;;;;;;5015098;28;20325;-89
2022/12/30 07:33:02;;;;;;;;;;;;;;;;;;5015185;28;19921;-89
2022/12/30 07:35:28;;;;;;;;;;;;;;;;;;5014841;28;19921;-89
2022/12/30 07:37:54;;;;;;;;;;;;;;;;;;4998441;28;20015;-89
2022/12/30 07:40:20;;;;;;;;;;;;;;;;;;5015009;28;19921;-90
2022/12/30 07:42:46;;;;;;;;;;;;;;;;;;5014786;28;20466;-91
2022/12/30 07:45:12;;;;;;;;;;;;;;;;;;4998716;28;20060;-92
2022/12/30 07:47:38;;;;;;;;;;;;;;;;;;4998659;28;19972;-89
2022/12/30 07:50:05;;;;;;;;;;;;;;;;;;4998654;28;19929;-91
2022/12/30 07:52:30;;;;;;;;;;;;;;;;;;4999290;28;19932;-90
2022/12/30 07:54:56;;;;;;;;;;;;;;;;;;5001564;28;20368;-89
2022/12/30 07:57:22;;;;;;;;;;;;;;;;;;5010984;28;19936;-90
2022/12/30 07:59:48;;;;;;;;;;;;;;;;;;5035913;28;20011;-91
2022/12/30 08:02:14;;;;;;;;;;;;;;;;;;5001928;28;20004;-90
2022/12/30 08:04:40;;;;;;;;;;;;;;;;;;4998620;28;19944;-90
2022/12/30 08:07:06;;;;;;;;;;;;;;;;;;4998497;28;19983;-90
2022/12/30 08:09:32;;;;;;;;;;;;;;;;;;5014687;28;19921;-90
2022/12/30 08:11:58;;;;;;;;;;;;;;;;;;4998062;28;19925;-90
2022/12/30 08:14:24;;;;;;;;;;;;;;;;;;4998085;28;19921;-90
2022/12/30 08:16:50;;;;;;;;;;;;;;;;;;5014643;28;19921;-90
2022/12/30 08:19:16;;;;;;;;;;;;;;;;;;5014250;28;19921;-89
2022/12/30 08:21:42;;;;;;;;;;;;;;;;;;5014608;28;19928;-90
2022/12/30 08:24:08;;;;;;;;;;;;;;;;;;4998176;28;19921;-90
2022/12/30 08:26:34;;;;;;;;;;;;;;;;;;5014345;28;19921;-93
2022/12/30 08:29:00;;;;;;;;;;;;;;;;;;4998333;28;19983;-91
2022/12/30 08:31:26;;;;;;;;;;;;;;;;;;4999164;28;19928;-94
2022/12/30 08:33:51;;;;;;;;;;;;;;;;;;5002031;28;19921;-91
2022/12/30 08:36:17;;;;;;;;;;;;;;;;;;5018585;28;19921;-93
2022/12/30 08:38:43;;;;;;;;;;;;;;;;;;5002060;28;19922;-89
2022/12/30 08:41:09;;;;;;;;;;;;;;;;;;5002080;28;20332;-88
2022/12/30 08:43:35;;;;;;;;;;;;;;;;;;5001799;28;19928;-89
2022/12/30 08:46:01;;;;;;;;;;;;;;;;;;5001572;28;19925;-89
2022/12/30 08:48:27;;;;;;;;;;;;;;;;;;5017853;28;19920;-88
2022/12/30 08:50:53;;;;;;;;;;;;;;;;;;5017837;28;19925;-90
2022/12/30 08:53:19;;;;;;;;;;;;;;;;;;5001743;28;20293;-89
2022/12/30 08:55:45;;;;;;;;;;;;;;;;;;5001449;28;20036;-89
2022/12/30 08:58:10;;;;;;;;;;;;;;;;;;5001889;28;19975;-89
2022/12/30 09:00:36;;;;;;;;;;;;;;;;;;5017916;28;19967;-89
2022/12/30 09:03:02;;;;;;;;;;;;;;;;;;5002212;28;19921;-88
2022/12/30 09:05:28;;;;;;;;;;;;;;;;;;5002988;28;19921;-88
2022/12/30 09:07:54;;;;;;;;;;;;;;;;;;5018338;28;20012;-87
2022/12/30 09:10:20;;;;;;;;;;;;;;;;;;5003858;28;19936;-87
2022/12/30 09:12:46;;;;;;;;;;;;;;;;;;5018531;28;20368;-87
2022/12/30 09:15:13;;;;;;;;;;;;;;;;;;5017787;28;19921;-88
2022/12/30 09:17:38;;;;;;;;;;;;;;;;;;5001282;28;20471;-88
2022/12/30 09:20:04;;;;;;;;;;;;;;;;;;5001220;28;19975;-89
2022/12/30 09:22:30;;;;;;;;;;;;;;;;;;5014151;28;19925;-89
2022/12/30 09:24:56;;;;;;;;;;;;;;;;;;4998100;28;19929;-88
2022/12/30 09:27:22;;;;;;;;;;;;;;;;;;4998097;28;19922;-93
2022/12/30 09:29:48;;;;;;;;;;;;;;;;;;4982450;28;19932;-89
2022/12/30 09:32:14;;;;;;;;;;;;;;;;;;4998970;28;20015;-90
2022/12/30 09:34:41;;;;;;;;;;;;;;;;;;5018867;28;19922;-89
2022/12/30 09:37:08;;;;;;;;;;;;;;;;;;5031291;28;20012;-88
2022/12/30 09:39:34;;;;;;;;;;;;;;;;;;4982212;28;19979;-88
2022/12/30 09:44:44;;;;;;;;;;;;;;;;;;5004852;28;19921;-88
2022/12/30 09:47:10;;;;;;;;;;;;;;;;;;5016695;28;20300;-89
2022/12/30 09:49:36;;;;;;;;;;;;;;;;;;5016045;28;19929;-89
2022/12/30 09:52:02;;;;;;;;;;;;;;;;;;5000115;28;19932;-88
2022/12/30 09:54:28;;;;;;;;;;;;;;;;;;4998573;28;19921;-88
2022/12/30 09:56:57;;;;;;;;;;;;;;;;;;4997272;28;19974;-88
2022/12/30 09:59:23;;;;;;;;;;;;;;;;;;4996803;28;19928;-88
2022/12/30 10:01:49;;;;;;;;;;;;;;;;;;5013190;28;19921;-87
2022/12/30 10:04:15;;;;;;;;;;;;;;;;;;4996768;28;20351;-87
2022/12/30 10:06:41;;;;;;;;;;;;;;;;;;4996765;28;19925;-87
2022/12/30 10:09:07;;;;;;;;;;;;;;;;;;4996762;28;20029;-88
2022/12/30 10:11:32;;;;;;;;;;;;;;;;;;4996589;28;20094;-88
2022/12/30 10:13:58;;;;;;;;;;;;;;;;;;4996562;28;19921;-88
2022/12/30 10:16:24;;;;;;;;;;;;;;;;;;4996463;28;20419;-87
2022/12/30 10:18:50;;;;;;;;;;;;;;;;;;4996539;28;19921;-87
2022/12/30 10:21:17;;;;;;;;;;;;;;;;;;4996344;28;20261;-89
2022/12/30 10:23:43;;;;;;;;;;;;;;;;;;4996907;28;20268;-87
2022/12/30 10:26:09;;;;;;;;;;;;;;;;;;5003753;28;19921;-91
2022/12/30 10:28:34;;;;;;;;;;;;;;;;;;4999589;28;19974;-89
2022/12/30 10:31:00;;;;;;;;;;;;;;;;;;5015706;28;19929;-89
2022/12/30 10:33:26;;;;;;;;;;;;;;;;;;4999129;28;19928;-88
2022/12/30 10:35:52;;;;;;;;;;;;;;;;;;4999275;28;19928;-89
2022/12/30 10:38:18;;;;;;;;;;;;;;;;;;4999723;28;20283;-88
2022/12/30 10:40:44;;;;;;;;;;;;;;;;;;4999372;28;19949;-88
2022/12/30 10:43:10;;;;;;;;;;;;;;;;;;5015722;28;20363;-89
2022/12/30 10:45:36;;;;;;;;;;;;;;;;;;4999127;28;19968;-88
2022/12/30 10:48:02;;;;;;;;;;;;;;;;;;4999341;28;19968;-88
2022/12/30 10:50:28;;;;;;;;;;;;;;;;;;4998972;28;19979;-88
2022/12/30 10:52:54;;;;;;;;;;;;;;;;;;5015468;28;19925;-88
2022/12/30 10:55:20;;;;;;;;;;;;;;;;;;5026298;28;20312;-89
2022/12/30 10:57:46;;;;;;;;;;;;;;;;;;4995939;28;20368;-89
2022/12/30 11:00:12;;;;;;;;;;;;;;;;;;4996186;28;20012;-89
2022/12/30 11:02:37;;;;;;;;;;;;;;;;;;4996817;28;20281;-89
2022/12/30 11:05:03;;;;;;;;;;;;;;;;;;4996167;28;19925;-88
2022/12/30 11:07:29;;;;;;;;;;;;;;;;;;4995875;28;19922;-88
2022/12/30 11:09:55;;;;;;;;;;;;;;;;;;4999967;28;19925;-90
2022/12/30 11:15:06;;;;;;;;;;;;;;;;;;4998220;28;19925;-88
2022/12/30 11:17:32;;;;;;;;;;;;;;;;;;4998605;28;20016;-89
2022/12/30 11:19:58;;;;;;;;;;;;;;;;;;5013015;28;19948;-88
2022/12/30 11:22:24;;;;;;;;;;;;;;;;;;5012044;28;19922;-88
2022/12/30 11:24:50;;;;;;;;;;;;;;;;;;4996444;28;19925;-89
2022/12/30 11:27:16;;;;;;;;;;;;;;;;;;4995743;28;20326;-88
2022/12/30 11:29:41;;;;;;;;;;;;;;;;;;4995802;28;20017;-90
2022/12/30 11:32:07;;;;;;;;;;;;;;;;;;4995705;28;19988;-88
2022/12/30 11:34:33;;;;;;;;;;;;;;;;;;5013445;28;19999;-89
2022/12/30 11:36:59;;;;;;;;;;;;;;;;;;4995571;28;20016;-89
2022/12/30 11:39:25;;;;;;;;;;;;;;;;;;4995591;28;19922;-88
2022/12/30 11:41:51;;;;;;;;;;;;;;;;;;4995522;28;19925;-88
2022/12/30 11:44:17;;;;;;;;;;;;;;;;;;4995369;28;20013;-87
2022/12/30 11:46:43;;;;;;;;;;;;;;;;;;4995762;28;19972;-90
2022/12/30 11:49:09;;;;;;;;;;;;;;;;;;4996185;28;20395;-90
2022/12/30 11:51:35;;;;;;;;;;;;;;;;;;4995396;28;19933;-90
2022/12/30 11:54:01;;;;;;;;;;;;;;;;;;4995398;28;19932;-90
2022/12/30 11:56:27;;;;;;;;;;;;;;;;;;4995574;28;19921;-90
2022/12/30 11:58:53;;;;;;;;;;;;;;;;;;4994984;28;20032;-92
2022/12/30 12:01:19;;;;;;;;;;;;;;;;;;4994937;28;19973;-88
2022/12/30 12:03:45;;;;;;;;;;;;;;;;;;4995311;28;19922;-88
2022/12/30 12:06:11;;;;;;;;;;;;;;;;;;4995806;28;19931;-88
2022/12/30 12:08:37;;;;;;;;;;;;;;;;;;4998964;28;20012;-87
2022/12/30 12:11:03;;;;;;;;;;;;;;;;;;4998983;28;20012;-88
2022/12/30 12:13:29;;;;;;;;;;;;;;;;;;4999006;28;19921;-88
2022/12/30 12:15:55;;;;;;;;;;;;;;;;;;4998741;28;19921;-88
2022/12/30 12:18:21;;;;;;;;;;;;;;;;;;4998948;28;19932;-87
2022/12/30 12:20:47;;;;;;;;;;;;;;;;;;4998905;28;19933;-89
2022/12/30 12:23:13;;;;;;;;;;;;;;;;;;4999509;28;19929;-89
2022/12/30 12:25:38;;;;;;;;;;;;;;;;;;4999436;28;19928;-89
2022/12/30 12:28:05;;;;;;;;;;;;;;;;;;5021118;28;19932;-87
2022/12/30 12:30:31;;;;;;;;;;;;;;;;;;5014850;28;19930;-88
2022/12/30 12:32:57;;;;;;;;;;;;;;;;;;5022004;28;19977;-89
2022/12/30 12:35:23;;;;;;;;;;;;;;;;;;4998239;28;19922;-91
2022/12/30 12:37:48;;;;;;;;;;;;;;;;;;4998551;28;19964;-90
2022/12/30 12:40:14;;;;;;;;;;;;;;;;;;4998372;28;19925;-89
2022/12/30 12:42:40;;;;;;;;;;;;;;;;;;4998215;28;19926;-89
2022/12/30 12:45:06;;;;;;;;;;;;;;;;;;4998248;28;20298;-89
2022/12/30 12:47:32;;;;;;;;;;;;;;;;;;4998319;28;19928;-89
2022/12/30 12:49:58;;;;;;;;;;;;;;;;;;4998442;28;19921;-88
2022/12/30 12:52:24;;;;;;;;;;;;;;;;;;4998152;28;19975;-89
2022/12/30 12:54:50;;;;;;;;;;;;;;;;;;4998452;28;20009;-89
2022/12/30 12:57:16;;;;;;;;;;;;;;;;;;4998376;28;19998;-88
2022/12/30 12:59:42;;;;;;;;;;;;;;;;;;4997902;28;20434;-89
2022/12/30 13:02:08;;;;;;;;;;;;;;;;;;4998101;28;19921;-89
2022/12/30 13:04:34;;;;;;;;;;;;;;;;;;4998020;28;19921;-89
2022/12/30 13:07:00;;;;;;;;;;;;;;;;;;4997921;28;19976;-90
2022/12/30 13:09:25;;;;;;;;;;;;;;;;;;4998535;28;19985;-89
2022/12/30 13:11:51;;;;;;;;;;;;;;;;;;4997829;28;20429;-90
2022/12/30 13:14:17;;;;;;;;;;;;;;;;;;4998052;28;19929;-90
2022/12/30 13:16:43;;;;;;;;;;;;;;;;;;4997720;28;19922;-89
2022/12/30 13:19:09;;;;;;;;;;;;;;;;;;4997392;28;19927;-88
2022/12/30 13:21:35;;;;;;;;;;;;;;;;;;4997663;28;19921;-89
2022/12/30 13:24:01;;;;;;;;;;;;;;;;;;4997760;28;20032;-89
2022/12/30 13:26:28;;;;;;;;;;;;;;;;;;4997436;28;20100;-89
2022/12/30 13:28:54;;;;;;;;;;;;;;;;;;4997408;28;19936;-88
2022/12/30 13:31:20;;;;;;;;;;;;;;;;;;5013923;28;20433;-89
2022/12/30 13:33:45;;;;;;;;;;;;;;;;;;4997397;28;20038;-89
2022/12/30 13:36:12;;;;;;;;;;;;;;;;;;4997139;28;20004;-91
2022/12/30 13:38:37;;;;;;;;;;;;;;;;;;4998562;28;19929;-88
2022/12/30 13:41:03;;;;;;;;;;;;;;;;;;5016629;28;19921;-91
2022/12/30 13:43:29;;;;;;;;;;;;;;;;;;5000600;28;19921;-89
2022/12/30 13:45:57;;;;;;;;;;;;;;;;;;4997615;28;20349;-93
2022/12/30 13:48:23;;;;;;;;;;;;;;;;;;5000577;28;19975;-88
2022/12/30 13:50:49;;;;;;;;;;;;;;;;;;5000297;28;19925;-90
2022/12/30 13:53:16;;;;;;;;;;;;;;;;;;5000410;28;19928;-87
2022/12/30 13:55:42;;;;;;;;;;;;;;;;;;5016461;28;19921;-90
2022/12/30 13:58:08;;;;;;;;;;;;;;;;;;5016648;28;19975;-90
2022/12/30 14:00:34;;;;;;;;;;;;;;;;;;4999823;28;19925;-89
2022/12/30 14:03:00;;;;;;;;;;;;;;;;;;5016346;28;19921;-92
2022/12/30 14:05:26;;;;;;;;;;;;;;;;;;5000572;28;19921;-89
2022/12/30 14:07:52;;;;;;;;;;;;;;;;;;5000595;28;20376;-92
2022/12/30 14:10:18;;;;;;;;;;;;;;;;;;5018266;28;19929;-93
2022/12/30 14:12:47;;;;;;;;;;;;;;;;;;5001156;28;20007;-94
2022/12/30 14:15:13;;;;;;;;;;;;;;;;;;5000022;28;19964;-94
2022/12/30 14:17:45;;;;;;;;;;;;;;;;;;5001534;28;19929;-93
2022/12/30 14:20:23;;;;;;;;;;;;;;;;;;5000382;28;19951;-96
2022/12/30 14:22:50;;;;;;;;;;;;;;;;;;5001157;28;20281;-92
2022/12/30 14:25:16;;;;;;;;;;;;;;;;;;5000082;28;20387;-90
2022/12/30 14:27:42;;;;;;;;;;;;;;;;;;4999507;28;19921;-89
2022/12/30 14:30:08;;;;;;;;;;;;;;;;;;4998977;28;19921;-89
2022/12/30 14:32:34;;;;;;;;;;;;;;;;;;4999249;28;20284;-91
2022/12/30 14:35:00;;;;;;;;;;;;;;;;;;4999062;28;19943;-89
2022/12/30 14:37:26;;;;;;;;;;;;;;;;;;4999440;28;20040;-88
2022/12/30 14:39:52;;;;;;;;;;;;;;;;;;4999477;28;20011;-88
2022/12/30 14:42:18;;;;;;;;;;;;;;;;;;4999613;28;20004;-90
2022/12/30 14:44:44;;;;;;;;;;;;;;;;;;5015720;28;19921;-87
2022/12/30 14:47:10;;;;;;;;;;;;;;;;;;5015950;28;20325;-88
2022/12/30 14:49:36;;;;;;;;;;;;;;;;;;5015546;28;19921;-88
2022/12/30 14:52:02;;;;;;;;;;;;;;;;;;5016199;28;19929;-87
2022/12/30 14:54:28;;;;;;;;;;;;;;;;;;5016056;28;19928;-91
2022/12/30 14:56:54;;;;;;;;;;;;;;;;;;4999089;28;19928;-91
2022/12/30 14:59:20;;;;;;;;;;;;;;;;;;5000849;28;19921;-93
2022/12/30 15:01:45;;;;;;;;;;;;;;;;;;4998798;28;19931;-92
2022/12/30 15:04:11;;;;;;;;;;;;;;;;;;4998665;28;19928;-92
2022/12/30 15:06:43;;;;;;;;;;;;;;;;;;4999197;28;19928;-96
2022/12/30 15:09:09;;;;;;;;;;;;;;;;;;4988817;28;19921;-93
2022/12/30 15:11:36;;;;;;;;;;;;;;;;;;4980025;28;19932;-94
2022/12/30 15:14:11;;;;;;;;;;;;;;;;;;4980765;28;19936;-96
2022/12/30 15:16:40;;;;;;;;;;;;;;;;;;4981450;28;19925;-95
2022/12/30 15:19:06;;;;;;;;;;;;;;;;;;4980843;28;20128;-96
2022/12/30 15:21:35;;;;;;;;;;;;;;;;;;4980598;28;19925;-95
2022/12/30 15:24:01;;;;;;;;;;;;;;;;;;4979948;28;20495;-92
2022/12/30 15:26:27;;;;;;;;;;;;;;;;;;4979707;28;19969;-90
2022/12/30 15:28:53;;;;;;;;;;;;;;;;;;4980716;28;20280;-93
2022/12/30 15:31:19;;;;;;;;;;;;;;;;;;4979481;28;19980;-92
2022/12/30 15:33:45;;;;;;;;;;;;;;;;;;4979890;28;20231;-93
2022/12/30 15:36:11;;;;;;;;;;;;;;;;;;4980884;28;20056;-93
2022/12/30 15:38:37;;;;;;;;;;;;;;;;;;4979737;28;19928;-93
2022/12/30 15:41:03;;;;;;;;;;;;;;;;;;4978958;28;20011;-92
2022/12/30 15:43:29;;;;;;;;;;;;;;;;;;4980709;28;19925;-93
2022/12/30 15:45:55;;;;;;;;;;;;;;;;;;4980293;28;19921;-93
2022/12/30 15:48:21;;;;;;;;;;;;;;;;;;4979343;28;19951;-93
2022/12/30 15:50:47;;;;;;;;;;;;;;;;;;4979068;28;19930;-93
2022/12/30 15:53:13;;;;;;;;;;;;;;;;;;4979645;28;20324;-92
2022/12/30 15:55:42;;;;;;;;;;;;;;;;;;4979953;28;19921;-93
2022/12/30 15:58:08;;;;;;;;;;;;;;;;;;4979451;28;19922;-92
2022/12/30 16:00:36;;;;;;;;;;;;;;;;;;4978709;28;20345;-93
2022/12/30 16:03:02;;;;;;;;;;;;;;;;;;4978989;28;19925;-91
2022/12/30 16:05:28;;;;;;;;;;;;;;;;;;4978822;28;19921;-93
2022/12/30 16:07:54;;;;;;;;;;;;;;;;;;4979088;28;19976;-92
2022/12/30 16:10:20;;;;;;;;;;;;;;;;;;4978832;28;20012;-94
2022/12/30 16:12:46;;;;;;;;;;;;;;;;;;4979306;28;19922;-92
2022/12/30 16:15:15;;;;;;;;;;;;;;;;;;4978753;28;20059;-94
2022/12/30 16:17:41;;;;;;;;;;;;;;;;;;4978817;28;19925;-92
2022/12/30 16:20:07;;;;;;;;;;;;;;;;;;4978625;28;19932;-92
2022/12/30 16:22:36;;;;;;;;;;;;;;;;;;4979866;28;19922;-94
2022/12/30 16:25:05;;;;;;;;;;;;;;;;;;4979326;28;19965;-88
2022/12/30 16:27:31;;;;;;;;;;;;;;;;;;4978813;28;19967;-87
2022/12/30 16:29:56;;;;;;;;;;;;;;;;;;4979050;28;19985;-88
2022/12/30 16:32:22;;;;;;;;;;;;;;;;;;4994458;28;19925;-87
2022/12/30 16:34:48;;;;;;;;;;;;;;;;;;4978206;28;19921;-86
2022/12/30 16:37:15;;;;;;;;;;;;;;;;;;4995018;28;19980;-87
2022/12/30 16:39:40;;;;;;;;;;;;;;;;;;4978354;28;19925;-87
2022/12/30 16:42:08;;;;;;;;;;;;;;;;;;4978265;28;19925;-86
2022/12/30 16:44:34;;;;;;;;;;;;;;;;;;4978149;28;19948;-87
2022/12/30 16:47:00;;;;;;;;;;;;;;;;;;4995172;28;19921;-87
2022/12/30 16:49:25;;;;;;;;;;;;;;;;;;5012490;28;19991;-89
2022/12/30 16:51:53;;;;;;;;;;;;;;;;;;4994113;28;19971;-89
2022/12/30 16:54:19;;;;;;;;;;;;;;;;;;4997753;28;19993;-90
2022/12/30 16:56:49;;;;;;;;;;;;;;;;;;4981818;28;19926;-88
2022/12/30 16:59:17;;;;;;;;;;;;;;;;;;4981221;28;19922;-88
2022/12/30 17:01:43;;;;;;;;;;;;;;;;;;4981471;28;19921;-87
2022/12/30 17:04:09;;;;;;;;;;;;;;;;;;4997663;28;19928;-87
2022/12/30 17:06:35;;;;;;;;;;;;;;;;;;4997594;28;20276;-87
2022/12/30 17:09:04;;;;;;;;;;;;;;;;;;4981137;28;20403;-88
2022/12/30 17:11:30;;;;;;;;;;;;;;;;;;4997305;28;20266;-89
2022/12/30 17:13:56;;;;;;;;;;;;;;;;;;4981207;28;20004;-89
2022/12/30 17:16:22;;;;;;;;;;;;;;;;;;4981052;28;19921;-88
2022/12/30 17:18:48;;;;;;;;;;;;;;;;;;4997425;28;19944;-89
2022/12/30 17:21:14;;;;;;;;;;;;;;;;;;4997206;28;19985;-89
2022/12/30 17:23:40;;;;;;;;;;;;;;;;;;4998843;28;20290;-87
2022/12/30 17:26:06;;;;;;;;;;;;;;;;;;4982716;28;20361;-89
2022/12/30 17:28:32;;;;;;;;;;;;;;;;;;4981245;28;20356;-89
2022/12/30 17:30:58;;;;;;;;;;;;;;;;;;4997230;28;19926;-89